Time;durP1;ratioP1;P1;durP2;ratioP2;P2;SDS_P1;SDS_P2;PMS_P1;PMS_P2;Temp;Humidity;BMP_temperature;BMP_pressure;BME280_temperature;BME280_humidity;BME280_pressure;Samples;Min_cycle;Max_cycle;Signal;HPM_P1;HPM_P2
2021/11/28 00:00:52;;;;;;;8.27;4.45;;;6.00;99.90;;;;;;4169452;28;20400;-61
2021/11/28 00:02:54;;;;;;;8.07;4.32;;;6.00;99.90;;;;;;4170448;28;20040;-61
2021/11/28 00:04:55;;;;;;;10.40;5.32;;;6.00;99.90;;;;;;4174597;28;20487;-61
2021/11/28 00:07:08;;;;;;;11.30;4.80;;;6.00;99.90;;;;;;4171773;28;20044;-61
2021/11/28 00:11:44;;;;;;;9.25;4.65;;;6.00;99.90;;;;;;4165637;28;20045;-61
2021/11/28 00:13:52;;;;;;;10.93;5.10;;;6.00;99.90;;;;;;4181182;28;20055;-61
2021/11/28 00:15:53;;;;;;;11.85;4.20;;;6.00;99.90;;;;;;4173772;28;20036;-61
2021/11/28 00:17:53;;;;;;;8.55;4.90;;;6.00;99.90;;;;;;4155164;28;20037;-61
2021/11/28 00:19:54;;;;;;;8.75;4.07;;;6.10;99.90;;;;;;4171048;28;20383;-61
2021/11/28 00:21:55;;;;;;;9.88;4.45;;;6.10;99.90;;;;;;4174377;28;20021;-61
2021/11/28 00:23:55;;;;;;;12.52;5.03;;;6.10;99.90;;;;;;4173479;28;20049;-61
2021/11/28 00:25:56;;;;;;;6.53;4.03;;;6.10;99.90;;;;;;4170844;28;20029;-61
2021/11/28 00:27:57;;;;;;;9.38;4.93;;;6.10;99.90;;;;;;4174804;28;20033;-61
2021/11/28 00:29:58;;;;;;;9.85;4.15;;;6.10;99.90;;;;;;4168620;28;20490;-61
2021/11/28 00:31:59;;;;;;;10.35;4.45;;;6.10;99.90;;;;;;4169640;28;20053;-61
2021/11/28 00:34:00;;;;;;;10.07;4.45;;;6.10;99.90;;;;;;4169814;28;20030;-61
2021/11/28 00:36:01;;;;;;;8.18;4.10;;;6.10;99.90;;;;;;4169361;28;20379;-61
2021/11/28 00:38:01;;;;;;;7.70;3.85;;;6.10;99.90;;;;;;4169769;28;20037;-61
2021/11/28 00:40:03;;;;;;;8.23;4.25;;;6.20;99.90;;;;;;4169803;28;20061;-62
2021/11/28 00:42:06;;;;;;;6.88;3.88;;;6.20;99.90;;;;;;4169516;28;20030;-61
2021/11/28 00:44:07;;;;;;;9.15;4.47;;;6.20;99.90;;;;;;4149334;28;20048;-61
2021/11/28 00:46:07;;;;;;;10.02;4.57;;;6.20;99.90;;;;;;4168980;28;20038;-61
2021/11/28 00:48:08;;;;;;;8.57;4.32;;;6.20;99.90;;;;;;4169520;28;20029;-61
2021/11/28 00:52:09;;;;;;;9.38;4.70;;;6.30;99.90;;;;;;4173675;28;20025;-61
2021/11/28 00:54:10;;;;;;;10.90;4.68;;;6.20;99.90;;;;;;4173441;28;20036;-61
2021/11/28 00:56:11;;;;;;;8.13;4.45;;;6.20;99.90;;;;;;4169327;28;20037;-61
2021/11/28 00:58:11;;;;;;;12.95;5.00;;;6.20;99.90;;;;;;4168515;28;20480;-61
2021/11/28 01:00:12;;;;;;;10.57;4.70;;;6.20;99.90;;;;;;4171916;28;20112;-61
2021/11/28 01:02:13;;;;;;;8.88;4.75;;;6.20;99.90;;;;;;4172915;28;20036;-61
2021/11/28 01:04:14;;;;;;;9.07;4.78;;;6.20;99.90;;;;;;4172691;28;20033;-61
2021/11/28 01:06:14;;;;;;;11.88;4.93;;;6.00;99.90;;;;;;4179674;28;20163;-61
2021/11/28 01:08:16;;;;;;;8.75;4.65;;;6.00;99.90;;;;;;4172736;28;20442;-61
2021/11/28 01:10:16;;;;;;;8.45;4.22;;;5.90;99.90;;;;;;4169279;28;20448;-61
2021/11/28 01:12:17;;;;;;;7.75;4.30;;;6.00;99.90;;;;;;4175742;28;20092;-61
2021/11/28 01:14:18;;;;;;;14.75;4.88;;;5.90;99.90;;;;;;4172973;28;20069;-61
2021/11/28 01:16:20;;;;;;;9.20;5.07;;;5.80;99.90;;;;;;4171699;28;20495;-61
2021/11/28 01:18:21;;;;;;;7.45;4.55;;;5.90;99.90;;;;;;4172302;28;20403;-61
2021/11/28 01:20:21;;;;;;;8.73;4.20;;;5.90;99.90;;;;;;4176408;28;20030;-61
2021/11/28 01:22:22;;;;;;;9.95;4.93;;;5.80;99.90;;;;;;4180049;28;20147;-61
2021/11/28 01:24:22;;;;;;;11.38;5.25;;;5.80;99.90;;;;;;4174390;28;20032;-61
2021/11/28 01:26:24;;;;;;;8.98;4.53;;;5.80;99.90;;;;;;4176342;28;20032;-61
2021/11/28 01:28:25;;;;;;;10.07;4.50;;;5.80;99.90;;;;;;4172109;28;20025;-61
2021/11/28 01:30:26;;;;;;;7.88;4.20;;;5.80;99.90;;;;;;4182420;28;20029;-61
2021/11/28 01:32:26;;;;;;;11.15;4.53;;;5.80;99.90;;;;;;4175623;28;20059;-61
2021/11/28 01:34:28;;;;;;;9.57;4.57;;;5.90;99.90;;;;;;4172391;28;20037;-61
2021/11/28 01:36:29;;;;;;;10.18;4.55;;;5.90;99.90;;;;;;4171744;28;20030;-61
2021/11/28 01:38:29;;;;;;;8.43;4.40;;;5.90;99.90;;;;;;4173826;28;20029;-61
2021/11/28 01:40:30;;;;;;;6.05;4.00;;;5.90;99.90;;;;;;4176651;28;20399;-61
2021/11/28 01:42:40;;;;;;;8.65;4.40;;;5.90;99.90;;;;;;4177450;28;20476;-61
2021/11/28 01:44:41;;;;;;;13.02;4.72;;;5.90;99.90;;;;;;4174431;28;20082;-61
2021/11/28 01:46:42;;;;;;;8.38;4.32;;;5.90;99.90;;;;;;4171725;28;20084;-61
2021/11/28 01:48:43;;;;;;;8.93;4.70;;;5.90;99.90;;;;;;4171895;28;20048;-61
2021/11/28 01:50:48;;;;;;;8.90;4.50;;;5.90;99.90;;;;;;4171365;28;20061;-60
2021/11/28 01:52:49;;;;;;;8.18;4.50;;;5.90;99.90;;;;;;4176712;28;20531;-61
2021/11/28 01:54:50;;;;;;;10.90;4.07;;;5.90;99.90;;;;;;4174209;28;20044;-61
2021/11/28 01:56:51;;;;;;;9.20;4.45;;;5.90;99.90;;;;;;4177100;28;20044;-61
2021/11/28 01:58:52;;;;;;;7.32;3.97;;;5.90;99.90;;;;;;4172138;28;20021;-61
2021/11/28 02:00:56;;;;;;;8.15;4.45;;;5.90;99.90;;;;;;4171274;28;20037;-61
2021/11/28 02:02:58;;;;;;;8.50;4.57;;;5.90;99.90;;;;;;4172215;28;20467;-61
2021/11/28 02:04:59;;;;;;;7.38;4.15;;;5.90;99.90;;;;;;4175021;28;20467;-61
2021/11/28 02:07:00;;;;;;;10.85;4.63;;;5.90;99.90;;;;;;4176438;28;20089;-61
2021/11/28 02:09:02;;;;;;;7.47;4.00;;;6.00;99.90;;;;;;4176269;28;20074;-61
2021/11/28 02:11:04;;;;;;;6.30;4.00;;;6.00;99.90;;;;;;4169353;28;20043;-61
2021/11/28 02:13:05;;;;;;;8.60;4.35;;;6.00;99.90;;;;;;4174039;28;20027;-61
2021/11/28 02:15:08;;;;;;;9.30;4.75;;;6.00;99.90;;;;;;4176415;28;20082;-63
2021/11/28 02:17:09;;;;;;;;;;;6.00;99.90;;;;;;4168572;28;20045;-61
2021/11/28 02:19:10;;;;;;;6.95;3.90;;;6.00;99.90;;;;;;4178710;28;20301;-61
2021/11/28 02:21:12;;;;;;;9.10;4.78;;;6.00;99.90;;;;;;4170590;28;20029;-61
2021/11/28 02:23:14;;;;;;;7.45;4.10;;;6.00;99.90;;;;;;4171483;28;20036;-61
2021/11/28 02:25:15;;;;;;;9.98;4.65;;;5.90;99.90;;;;;;4170695;28;20379;-61
2021/11/28 02:27:16;;;;;;;8.50;4.43;;;5.90;99.90;;;;;;4171306;28;20032;-61
2021/11/28 02:29:16;;;;;;;6.97;4.30;;;6.00;99.90;;;;;;4174087;28;20025;-61
2021/11/28 02:31:17;;;;;;;8.10;4.43;;;5.90;99.90;;;;;;4174432;28;20033;-61
2021/11/28 02:33:18;;;;;;;11.35;4.53;;;5.90;99.90;;;;;;4175865;28;20369;-61
2021/11/28 02:35:19;;;;;;;12.18;4.63;;;5.90;99.90;;;;;;4170684;28;20033;-61
2021/11/28 02:37:20;;;;;;;11.00;4.68;;;5.90;99.90;;;;;;4176794;28;20045;-61
2021/11/28 02:39:21;;;;;;;7.88;4.20;;;5.90;99.90;;;;;;4179773;28;20179;-61
2021/11/28 02:41:21;;;;;;;6.28;4.18;;;5.90;99.90;;;;;;4172481;28;20108;-61
2021/11/28 02:43:22;;;;;;;7.35;3.90;;;5.90;99.90;;;;;;4179418;28;20029;-61
2021/11/28 02:45:25;;;;;;;8.73;4.15;;;5.90;99.90;;;;;;4171039;28;20420;-61
2021/11/28 02:47:26;;;;;;;6.13;3.95;;;5.90;99.90;;;;;;4163389;28;20059;-61
2021/11/28 02:49:27;;;;;;;5.97;3.92;;;5.80;99.90;;;;;;4172551;28;20029;-61
2021/11/28 02:51:28;;;;;;;8.20;4.38;;;5.80;99.90;;;;;;4174507;28;20076;-61
2021/11/28 02:53:29;;;;;;;10.70;4.40;;;5.80;99.90;;;;;;4173535;28;20030;-61
2021/11/28 02:55:37;;;;;;;9.85;4.38;;;5.80;99.90;;;;;;4169806;28;20034;-61
2021/11/28 02:57:37;;;;;;;6.82;3.90;;;5.70;99.90;;;;;;4170364;28;20064;-61
2021/11/28 02:59:38;;;;;;;10.02;4.32;;;5.70;99.90;;;;;;4170090;28;20438;-60
2021/11/28 03:01:39;;;;;;;6.53;3.88;;;5.70;99.90;;;;;;4169867;28;20021;-61
2021/11/28 03:03:40;;;;;;;7.78;3.70;;;5.70;99.90;;;;;;4174762;28;20029;-61
2021/11/28 03:05:41;;;;;;;6.90;3.63;;;5.60;99.90;;;;;;4174784;28;20044;-61
2021/11/28 03:07:42;;;;;;;10.43;3.65;;;5.60;99.90;;;;;;4174058;28;20484;-61
2021/11/28 03:09:44;;;;;;;7.32;3.55;;;5.60;99.90;;;;;;4169862;28;20033;-61
2021/11/28 03:11:44;;;;;;;7.57;3.95;;;5.60;99.90;;;;;;4168480;28;20415;-61
2021/11/28 03:13:54;;;;;;;7.82;3.97;;;5.50;99.90;;;;;;4174349;28;20034;-61
2021/11/28 03:16:00;;;;;;;9.25;3.42;;;5.50;99.90;;;;;;4168722;28;20044;-61
2021/11/28 03:18:02;;;;;;;6.28;3.58;;;5.40;99.90;;;;;;4170405;28;20037;-61
2021/11/28 03:20:03;;;;;;;9.05;3.88;;;5.40;99.90;;;;;;4172185;28;20091;-62
2021/11/28 03:22:04;;;;;;;7.57;3.65;;;5.40;99.90;;;;;;4173338;28;20036;-61
2021/11/28 03:24:05;;;;;;;10.27;4.38;;;5.40;99.90;;;;;;4175511;28;20037;-61
2021/11/28 03:26:23;;;;;;;6.73;3.80;;;5.30;99.90;;;;;;4174822;28;20033;-60
2021/11/28 03:28:23;;;;;;;7.30;3.80;;;5.30;99.90;;;;;;4175082;28;20036;-61
2021/11/28 03:30:25;;;;;;;8.52;4.28;;;5.30;99.90;;;;;;4148957;28;20390;-61
2021/11/28 03:32:25;;;;;;;7.43;4.00;;;5.30;99.90;;;;;;4174619;28;20372;-61
2021/11/28 03:34:26;;;;;;;8.40;4.10;;;5.20;99.90;;;;;;4175974;28;20082;-60
2021/11/28 03:36:28;;;;;;;6.82;4.50;;;5.20;99.90;;;;;;4165963;28;20095;-61
2021/11/28 03:38:29;;;;;;;8.35;3.70;;;5.20;99.90;;;;;;4172759;28;20032;-60
2021/11/28 03:40:30;;;;;;;6.28;3.83;;;5.20;99.90;;;;;;4172632;28;20504;-61
2021/11/28 03:42:30;;;;;;;7.38;3.78;;;5.20;99.90;;;;;;4170456;28;20107;-59
2021/11/28 03:44:31;;;;;;;6.47;4.32;;;5.20;99.90;;;;;;4170575;28;20044;-61
2021/11/28 03:46:32;;;;;;;7.47;4.13;;;5.20;99.90;;;;;;4171337;28;20037;-61
2021/11/28 03:48:33;;;;;;;7.05;3.55;;;5.10;99.90;;;;;;4175417;28;20025;-61
2021/11/28 03:50:34;;;;;;;7.28;4.00;;;5.10;99.90;;;;;;4174596;28;20117;-61
2021/11/28 03:52:34;;;;;;;7.20;3.78;;;5.10;99.90;;;;;;4173582;28;20502;-60
2021/11/28 03:54:36;;;;;;;4.80;3.28;;;5.00;99.90;;;;;;4173635;28;20033;-60
2021/11/28 03:56:37;;;;;;;5.13;3.05;;;5.00;99.90;;;;;;4169229;28;20041;-60
2021/11/28 03:58:39;;;;;;;5.95;3.30;;;5.00;99.90;;;;;;4170107;28;20487;-60
2021/11/28 04:00:39;;;;;;;6.57;3.30;;;4.90;99.90;;;;;;4172036;28;20025;-61
2021/11/28 04:02:40;;;;;;;6.50;3.67;;;4.90;99.90;;;;;;4175166;28;20032;-61
2021/11/28 04:04:41;;;;;;;6.13;3.35;;;4.90;99.90;;;;;;4173316;28;20026;-61
2021/11/28 04:06:42;;;;;;;6.70;3.65;;;4.90;99.90;;;;;;4169253;28;20446;-61
2021/11/28 04:08:43;;;;;;;5.63;3.47;;;4.80;99.90;;;;;;4174698;28;20389;-61
2021/11/28 04:10:44;;;;;;;6.90;3.72;;;4.90;99.90;;;;;;4173593;28;20044;-61
2021/11/28 04:12:44;;;;;;;4.80;3.35;;;4.90;99.90;;;;;;4169959;28;20061;-61
2021/11/28 04:14:45;;;;;;;10.45;3.55;;;4.80;99.90;;;;;;4169754;28;20387;-61
2021/11/28 04:16:46;;;;;;;5.03;3.40;;;4.80;99.90;;;;;;4171544;28;20094;-61
2021/11/28 04:18:47;;;;;;;6.65;3.45;;;4.80;99.90;;;;;;4173176;28;20044;-60
2021/11/28 04:20:48;;;;;;;6.65;3.47;;;4.80;99.90;;;;;;4173152;28;20064;-61
2021/11/28 04:22:49;;;;;;;4.78;3.10;;;4.80;99.90;;;;;;4170024;28;20503;-61
2021/11/28 04:24:51;;;;;;;5.78;3.22;;;4.80;99.90;;;;;;4172197;28;20037;-61
2021/11/28 04:26:51;;;;;;;4.95;3.28;;;4.80;99.90;;;;;;4174498;28;20079;-61
2021/11/28 04:28:52;;;;;;;6.90;3.55;;;4.80;99.90;;;;;;4173113;28;20077;-61
2021/11/28 04:30:52;;;;;;;6.28;3.53;;;4.70;99.90;;;;;;4170548;28;20087;-61
2021/11/28 04:32:54;;;;;;;9.32;3.70;;;4.70;99.90;;;;;;4172182;28;20029;-61
2021/11/28 04:34:54;;;;;;;5.40;3.60;;;4.70;99.90;;;;;;4177738;28;20407;-61
2021/11/28 04:36:55;;;;;;;4.53;3.33;;;4.70;99.90;;;;;;4172629;28;20029;-61
2021/11/28 04:38:55;;;;;;;8.60;3.95;;;4.70;99.90;;;;;;4175469;28;20471;-61
2021/11/28 04:40:56;;;;;;;7.30;3.45;;;4.70;99.90;;;;;;4179931;28;20033;-61
2021/11/28 04:42:57;;;;;;;8.85;4.38;;;4.70;99.90;;;;;;4173107;28;20036;-61
2021/11/28 04:44:57;;;;;;;6.63;3.67;;;4.70;99.90;;;;;;4170504;28;20527;-61
2021/11/28 04:46:58;;;;;;;6.75;3.97;;;4.80;99.90;;;;;;4177514;28;20041;-61
2021/11/28 04:49:02;;;;;;;8.10;3.85;;;4.80;99.90;;;;;;4180927;28;20094;-61
2021/11/28 04:51:02;;;;;;;5.97;3.40;;;4.80;99.90;;;;;;4175443;28;20032;-61
2021/11/28 04:53:05;;;;;;;5.55;3.50;;;4.80;99.90;;;;;;4180279;28;20085;-61
2021/11/28 04:55:08;;;;;;;9.00;3.92;;;4.80;99.90;;;;;;4170903;28;20114;-61
2021/11/28 04:57:09;;;;;;;10.43;4.22;;;4.80;99.90;;;;;;4177570;28;20068;-61
2021/11/28 04:59:10;;;;;;;9.40;3.97;;;4.80;99.90;;;;;;4179831;28;20116;-61
2021/11/28 05:01:10;;;;;;;7.88;3.88;;;4.80;99.90;;;;;;4171630;28;20037;-61
2021/11/28 05:03:11;;;;;;;7.60;3.97;;;4.70;99.90;;;;;;4170582;28;20096;-61
2021/11/28 05:05:12;;;;;;;6.32;3.85;;;4.70;99.90;;;;;;4178969;28;20033;-62
2021/11/28 05:07:13;;;;;;;6.90;3.40;;;4.70;99.90;;;;;;4175386;28;20049;-60
2021/11/28 05:09:14;;;;;;;6.03;3.35;;;4.70;99.90;;;;;;4178304;28;20036;-61
2021/11/28 05:11:14;;;;;;;7.70;3.60;;;4.70;99.90;;;;;;4172079;28;20037;-61
2021/11/28 05:13:15;;;;;;;8.13;3.80;;;4.70;99.90;;;;;;4172977;28;20079;-61
2021/11/28 05:15:16;;;;;;;8.05;3.80;;;4.70;99.90;;;;;;4169945;28;20427;-61
2021/11/28 05:17:18;;;;;;;7.35;3.90;;;4.70;99.90;;;;;;4177818;28;20099;-61
2021/11/28 05:19:18;;;;;;;8.50;3.90;;;4.70;99.90;;;;;;4177570;28;20033;-61
2021/11/28 05:21:19;;;;;;;7.70;4.22;;;4.70;99.90;;;;;;4178674;28;20040;-61
2021/11/28 05:23:20;;;;;;;8.20;5.05;;;4.70;99.90;;;;;;4174864;28;20033;-61
2021/11/28 05:25:20;;;;;;;9.95;5.28;;;4.70;99.90;;;;;;4176438;28;20041;-61
2021/11/28 05:27:21;;;;;;;7.45;4.85;;;4.80;99.90;;;;;;4172959;28;20040;-61
2021/11/28 05:29:22;;;;;;;6.25;4.68;;;4.80;99.90;;;;;;4177459;28;20091;-61
2021/11/28 05:31:22;;;;;;;7.40;4.40;;;4.80;99.90;;;;;;4171490;28;20076;-61
2021/11/28 05:33:23;;;;;;;7.28;3.95;;;4.70;99.90;;;;;;4176505;28;20118;-61
2021/11/28 05:35:24;;;;;;;6.07;4.10;;;4.70;99.90;;;;;;4176109;28;20078;-59
2021/11/28 05:37:25;;;;;;;5.70;3.90;;;4.70;99.90;;;;;;4172447;28;20056;-61
2021/11/28 05:39:25;;;;;;;6.57;4.18;;;4.70;99.90;;;;;;4172317;28;20033;-60
2021/11/28 05:41:26;;;;;;;5.40;3.85;;;4.70;99.90;;;;;;4178968;28;20479;-61
2021/11/28 05:43:27;;;;;;;6.68;4.20;;;4.80;99.90;;;;;;4172375;28;20059;-61
2021/11/28 05:45:27;;;;;;;6.65;4.13;;;4.70;99.90;;;;;;4171209;28;20037;-61
2021/11/28 05:47:28;;;;;;;7.03;3.78;;;4.70;99.90;;;;;;4172584;28;20040;-61
2021/11/28 05:49:29;;;;;;;7.45;3.85;;;4.70;99.90;;;;;;4174985;28;20032;-61
2021/11/28 05:51:30;;;;;;;8.18;4.13;;;4.70;99.90;;;;;;4182203;28;20036;-61
2021/11/28 05:53:32;;;;;;;9.20;4.82;;;4.70;99.90;;;;;;4177901;28;20060;-60
2021/11/28 05:55:32;;;;;;;7.38;4.07;;;4.70;99.90;;;;;;4164212;28;20539;-61
2021/11/28 05:57:33;;;;;;;7.13;3.63;;;4.70;99.90;;;;;;4174184;28;20048;-61
2021/11/28 05:59:34;;;;;;;5.20;3.40;;;4.70;99.90;;;;;;4176476;28;20515;-61
2021/11/28 06:01:35;;;;;;;6.95;4.40;;;4.70;99.90;;;;;;4164243;28;20036;-61
2021/11/28 06:03:35;;;;;;;6.80;4.20;;;4.70;99.90;;;;;;4169731;28;20033;-61
2021/11/28 06:05:38;;;;;;;6.75;4.25;;;4.80;99.90;;;;;;4174155;28;20052;-61
2021/11/28 06:07:39;;;;;;;;;;;4.80;99.90;;;;;;4174689;28;20081;-61
2021/11/28 06:09:39;;;;;;;6.93;3.47;;;4.70;99.90;;;;;;4176761;28;19905;-61
2021/11/28 06:11:40;;;;;;;6.22;4.13;;;4.70;99.90;;;;;;4169737;28;20033;-60
2021/11/28 06:13:41;;;;;;;8.23;4.47;;;4.80;99.90;;;;;;4176042;28;20039;-61
2021/11/28 06:15:42;;;;;;;5.97;3.90;;;4.80;99.90;;;;;;4165706;28;20034;-61
2021/11/28 06:17:42;;;;;;;7.00;4.10;;;4.80;99.90;;;;;;4175323;28;20053;-61
2021/11/28 06:19:43;;;;;;;6.85;3.65;;;4.80;99.90;;;;;;4176295;28;20041;-61
2021/11/28 06:21:43;;;;;;;7.85;4.22;;;4.80;99.90;;;;;;4171218;28;20436;-61
2021/11/28 06:23:44;;;;;;;7.50;4.03;;;4.80;99.90;;;;;;4172078;28;20075;-61
2021/11/28 06:25:45;;;;;;;7.68;4.55;;;4.80;99.90;;;;;;4178260;28;20418;-60
2021/11/28 06:27:45;;;;;;;9.02;4.70;;;4.80;99.90;;;;;;4174016;28;20040;-61
2021/11/28 06:29:47;;;;;;;7.35;4.18;;;4.90;99.90;;;;;;4176414;28;20506;-61
2021/11/28 06:31:47;;;;;;;7.20;4.43;;;4.80;99.90;;;;;;4171355;28;20037;-61
2021/11/28 06:33:48;;;;;;;7.95;4.32;;;4.80;99.90;;;;;;4171883;28;20036;-60
2021/11/28 06:35:49;;;;;;;6.40;4.28;;;4.90;99.90;;;;;;4178213;28;20044;-61
2021/11/28 06:37:49;;;;;;;7.43;4.68;;;4.90;99.90;;;;;;4173290;28;20505;-61
2021/11/28 06:39:50;;;;;;;9.05;5.45;;;4.90;99.90;;;;;;4171106;28;20029;-60
2021/11/28 06:41:51;;;;;;;8.23;4.78;;;4.90;99.90;;;;;;4170896;28;20040;-61
2021/11/28 06:43:53;;;;;;;8.20;4.82;;;4.90;99.90;;;;;;4171726;28;20037;-61
2021/11/28 06:45:54;;;;;;;6.45;4.40;;;4.90;99.90;;;;;;4177622;28;20026;-61
2021/11/28 06:47:54;;;;;;;11.63;4.50;;;4.90;99.90;;;;;;4176116;28;20039;-60
2021/11/28 06:49:55;;;;;;;6.15;3.97;;;4.90;99.90;;;;;;4174806;28;20032;-61
2021/11/28 06:51:56;;;;;;;5.65;4.13;;;4.90;99.90;;;;;;4172745;28;20029;-61
2021/11/28 06:53:57;;;;;;;6.85;4.47;;;4.90;99.90;;;;;;4176330;28;20033;-61
2021/11/28 06:56:03;;;;;;;6.78;3.90;;;4.90;99.90;;;;;;4168331;28;20041;-61
2021/11/28 06:58:04;;;;;;;7.72;5.00;;;4.90;99.90;;;;;;4175562;28;20403;-61
2021/11/28 07:00:05;;;;;;;7.65;5.13;;;4.90;99.90;;;;;;4170764;28;20026;-63
2021/11/28 07:02:06;;;;;;;10.48;5.25;;;4.90;99.90;;;;;;4177480;28;20025;-61
2021/11/28 07:04:07;;;;;;;8.82;5.57;;;4.90;99.90;;;;;;4173212;28;20036;-61
2021/11/28 07:06:07;;;;;;;8.23;5.25;;;4.90;99.90;;;;;;4170394;28;20036;-61
2021/11/28 07:08:08;;;;;;;9.80;6.10;;;4.90;99.90;;;;;;4170565;28;20041;-61
2021/11/28 07:10:09;;;;;;;8.93;5.80;;;4.90;99.90;;;;;;4169892;28;20395;-62
2021/11/28 07:12:10;;;;;;;8.88;5.10;;;4.90;99.90;;;;;;4170831;28;20034;-61
2021/11/28 07:14:10;;;;;;;10.45;4.97;;;4.90;99.90;;;;;;4177557;28;20036;-61
2021/11/28 07:16:11;;;;;;;7.90;4.35;;;4.90;99.90;;;;;;4168550;28;20084;-61
2021/11/28 07:18:12;;;;;;;6.65;3.88;;;4.90;99.90;;;;;;4173603;28;20029;-61
2021/11/28 07:20:12;;;;;;;8.73;4.30;;;4.80;99.90;;;;;;4169723;28;20029;-62
2021/11/28 07:22:13;;;;;;;6.28;4.07;;;4.80;99.90;;;;;;4170625;28;20025;-61
2021/11/28 07:24:14;;;;;;;7.25;4.45;;;4.80;99.90;;;;;;4170779;28;20052;-61
2021/11/28 07:26:16;;;;;;;9.25;3.70;;;4.80;99.90;;;;;;4177841;28;20077;-61
2021/11/28 07:28:17;;;;;;;7.28;3.97;;;4.80;99.90;;;;;;4170285;28;20117;-61
2021/11/28 07:30:18;;;;;;;6.50;3.85;;;4.70;99.90;;;;;;4169637;28;20032;-62
2021/11/28 07:32:18;;;;;;;8.30;4.38;;;4.70;99.90;;;;;;4173111;28;20555;-61
2021/11/28 07:34:19;;;;;;;5.15;3.55;;;4.70;99.90;;;;;;4175760;28;20108;-61
2021/11/28 07:36:20;;;;;;;6.45;4.07;;;4.70;99.90;;;;;;4172561;28;20383;-62
2021/11/28 07:38:20;;;;;;;6.10;3.70;;;4.70;99.90;;;;;;4170538;28;20042;-61
2021/11/28 07:40:21;;;;;;;5.60;4.05;;;4.70;99.90;;;;;;4174445;28;20032;-61
2021/11/28 07:42:22;;;;;;;6.00;3.97;;;4.70;99.90;;;;;;4170598;28;20053;-61
2021/11/28 07:44:23;;;;;;;7.47;4.65;;;4.70;99.90;;;;;;4170156;28;20104;-61
2021/11/28 07:46:24;;;;;;;6.22;4.57;;;4.70;99.90;;;;;;4169091;28;20032;-61
2021/11/28 07:48:24;;;;;;;6.03;3.95;;;4.70;99.90;;;;;;4170199;28;20029;-61
2021/11/28 07:50:25;;;;;;;9.13;4.55;;;4.70;99.90;;;;;;4176555;28;20056;-61
2021/11/28 07:52:26;;;;;;;5.18;3.80;;;4.60;99.90;;;;;;4172576;28;20029;-61
2021/11/28 07:54:26;;;;;;;6.65;4.20;;;4.70;99.90;;;;;;4175998;28;20029;-62
2021/11/28 07:56:28;;;;;;;6.53;3.92;;;4.70;99.90;;;;;;4169360;28;20021;-62
2021/11/28 07:58:28;;;;;;;6.50;4.30;;;4.60;99.90;;;;;;4165264;28;20075;-62
2021/11/28 08:00:29;;;;;;;6.72;4.60;;;4.70;99.90;;;;;;4169599;28;20037;-62
2021/11/28 08:02:30;;;;;;;7.30;4.53;;;4.70;99.90;;;;;;4169913;28;20032;-62
2021/11/28 08:04:31;;;;;;;7.85;4.50;;;4.70;99.90;;;;;;4170295;28;20118;-62
2021/11/28 08:06:31;;;;;;;6.68;4.50;;;4.70;99.90;;;;;;4167495;28;20021;-61
2021/11/28 08:08:32;;;;;;;7.47;4.72;;;4.70;99.90;;;;;;4172361;28;20399;-62
2021/11/28 08:10:33;;;;;;;6.78;3.85;;;4.70;99.90;;;;;;4169564;28;20045;-62
2021/11/28 08:12:34;;;;;;;6.60;4.50;;;4.70;99.90;;;;;;4170083;28;20034;-62
2021/11/28 08:14:35;;;;;;;6.60;3.88;;;4.70;99.90;;;;;;4169903;28;20095;-61
2021/11/28 08:16:36;;;;;;;6.53;4.30;;;4.70;99.90;;;;;;4169113;28;20054;-61
2021/11/28 08:18:39;;;;;;;7.78;5.18;;;4.70;99.90;;;;;;4172250;28;20132;-62
2021/11/28 08:20:40;;;;;;;5.35;3.95;;;4.70;99.90;;;;;;4169679;28;20033;-61
2021/11/28 08:22:40;;;;;;;7.50;4.53;;;4.70;99.90;;;;;;4169883;28;20388;-61
2021/11/28 08:24:41;;;;;;;4.68;3.50;;;4.70;99.90;;;;;;4174449;28;20038;-62
2021/11/28 08:26:42;;;;;;;6.35;4.03;;;4.70;99.90;;;;;;4169353;28;20037;-62
2021/11/28 08:28:44;;;;;;;5.82;4.15;;;4.70;99.90;;;;;;4172059;28;20040;-62
2021/11/28 08:30:45;;;;;;;7.07;4.25;;;4.70;99.90;;;;;;4175903;28;20464;-62
2021/11/28 08:32:49;;;;;;;7.05;4.30;;;4.70;99.90;;;;;;4172066;28;20124;-62
2021/11/28 08:34:49;;;;;;;7.88;4.50;;;4.70;99.90;;;;;;4170045;28;20099;-62
2021/11/28 08:36:51;;;;;;;7.70;4.78;;;4.70;99.90;;;;;;4175505;28;20457;-62
2021/11/28 08:38:53;;;;;;;7.75;4.80;;;4.70;99.90;;;;;;4170020;28;20119;-62
2021/11/28 08:40:54;;;;;;;8.80;5.35;;;4.70;99.90;;;;;;4171602;28;20065;-62
2021/11/28 08:42:54;;;;;;;7.72;5.15;;;4.70;99.90;;;;;;4175247;28;20044;-62
2021/11/28 08:44:55;;;;;;;7.85;5.00;;;4.70;99.90;;;;;;4169456;28;20044;-62
2021/11/28 08:46:56;;;;;;;7.65;5.03;;;4.70;99.90;;;;;;4174319;28;20041;-62
2021/11/28 08:48:58;;;;;;;6.55;4.60;;;4.70;99.90;;;;;;4169984;28;20080;-62
2021/11/28 08:50:58;;;;;;;9.93;5.32;;;4.80;99.90;;;;;;4176968;28;20037;-62
2021/11/28 08:52:59;;;;;;;11.82;5.97;;;4.80;99.90;;;;;;4172137;28;20107;-62
2021/11/28 08:55:00;;;;;;;8.13;5.50;;;4.80;99.90;;;;;;4171758;28;20029;-62
2021/11/28 08:57:01;;;;;;;8.55;5.82;;;4.80;99.90;;;;;;4172428;28;20404;-62
2021/11/28 08:59:01;;;;;;;10.15;6.07;;;4.80;99.90;;;;;;4165748;28;20100;-62
2021/11/28 09:01:11;;;;;;;9.82;6.22;;;4.80;99.90;;;;;;4164920;28;20029;-62
2021/11/28 09:03:11;;;;;;;10.05;5.95;;;4.90;99.90;;;;;;4165956;28;20025;-62
2021/11/28 09:05:12;;;;;;;10.15;5.95;;;4.90;99.90;;;;;;4165013;28;20032;-63
2021/11/28 09:07:13;;;;;;;9.02;5.95;;;4.90;99.90;;;;;;4168202;28;20467;-62
2021/11/28 09:09:14;;;;;;;9.18;5.90;;;4.90;99.90;;;;;;4171562;28;20546;-62
2021/11/28 09:11:15;;;;;;;9.00;5.68;;;4.90;99.90;;;;;;4165574;28;20083;-62
2021/11/28 09:13:16;;;;;;;7.88;5.55;;;4.90;99.90;;;;;;4165230;28;20040;-62
2021/11/28 09:15:18;;;;;;;7.15;4.70;;;4.90;99.90;;;;;;4170101;28;20590;-62
2021/11/28 09:17:19;;;;;;;9.05;5.70;;;4.90;99.90;;;;;;4164867;28;20045;-62
2021/11/28 09:19:25;;;;;;;6.65;4.55;;;4.90;99.90;;;;;;4167629;28;20226;-62
2021/11/28 09:21:25;;;;;;;8.00;5.35;;;4.90;99.90;;;;;;4168118;28;20448;-62
2021/11/28 09:25:46;;;;;;;7.15;4.85;;;5.00;99.90;;;;;;4165399;28;20353;-62
2021/11/28 09:27:50;;;;;;;7.63;5.25;;;5.00;99.90;;;;;;4178812;28;20044;-62
2021/11/28 09:29:51;;;;;;;8.30;5.22;;;5.00;99.90;;;;;;4175491;28;20029;-62
2021/11/28 09:31:52;;;;;;;7.45;5.13;;;5.00;99.90;;;;;;4176884;28;20091;-62
2021/11/28 09:33:53;;;;;;;10.85;5.70;;;5.10;99.90;;;;;;4173263;28;20365;-62
2021/11/28 09:35:53;;;;;;;10.10;6.18;;;5.10;99.90;;;;;;4177186;28;20092;-62
2021/11/28 09:37:56;;;;;;;9.60;6.30;;;5.10;99.90;;;;;;4178018;28;20523;-62
2021/11/28 09:39:57;;;;;;;10.18;6.80;;;5.10;99.90;;;;;;4177171;28;20036;-62
2021/11/28 09:42:04;;;;;;;14.60;8.15;;;5.20;99.90;;;;;;4172681;28;20033;-62
2021/11/28 09:44:09;;;;;;;15.40;8.20;;;5.30;99.90;;;;;;4182294;28;20029;-62
2021/11/28 09:46:10;;;;;;;13.00;7.95;;;5.30;99.90;;;;;;4170932;28;20036;-62
2021/11/28 09:48:11;;;;;;;11.60;7.97;;;5.40;99.90;;;;;;4179710;28;20115;-62
2021/11/28 09:50:12;;;;;;;16.13;8.65;;;5.50;99.90;;;;;;4171079;28;20024;-63
2021/11/28 09:52:19;;;;;;;13.77;8.75;;;5.50;99.90;;;;;;4172118;28;20098;-62
2021/11/28 09:54:21;;;;;;;16.00;9.93;;;5.60;99.90;;;;;;4174503;28;20052;-62
2021/11/28 09:56:23;;;;;;;14.63;9.20;;;5.70;99.90;;;;;;4173803;28;20044;-62
2021/11/28 09:58:24;;;;;;;12.07;8.30;;;5.80;99.90;;;;;;4172311;28;20036;-62
2021/11/28 10:00:25;;;;;;;12.55;8.43;;;5.80;99.90;;;;;;4175252;28;20108;-62
2021/11/28 10:02:32;;;;;;;13.18;9.00;;;5.90;99.90;;;;;;4171762;28;20018;-62
2021/11/28 10:04:32;;;;;;;15.93;9.90;;;6.00;99.90;;;;;;4174378;28;20032;-62
2021/11/28 10:06:33;;;;;;;13.57;9.60;;;6.00;99.90;;;;;;4172541;28;20029;-63
2021/11/28 10:08:34;;;;;;;18.05;11.00;;;6.10;99.90;;;;;;4171602;28;20515;-63
2021/11/28 10:10:35;;;;;;;18.58;10.60;;;6.10;99.90;;;;;;4176350;28;20034;-63
2021/11/28 10:12:42;;;;;;;18.90;11.45;;;6.10;99.90;;;;;;4171518;28;20025;-63
2021/11/28 10:14:51;;;;;;;16.27;10.85;;;6.20;99.90;;;;;;4171413;28;20037;-62
2021/11/28 10:16:52;;;;;;;17.33;11.02;;;6.20;99.90;;;;;;4172968;28;20053;-63
2021/11/28 10:18:52;;;;;;;18.88;11.35;;;6.30;99.90;;;;;;4171432;28;20112;-62
2021/11/28 10:20:54;;;;;;;17.52;10.70;;;6.30;99.90;;;;;;4171178;28;20392;-63
2021/11/28 10:22:55;;;;;;;15.73;10.40;;;6.30;99.90;;;;;;4176481;28;20029;-62
2021/11/28 10:25:11;;;;;;;18.08;10.73;;;6.30;99.90;;;;;;4171455;28;20060;-62
2021/11/28 10:27:11;;;;;;;14.50;9.77;;;6.30;99.90;;;;;;4176383;28;20033;-63
2021/11/28 10:29:15;;;;;;;18.27;9.93;;;6.40;99.90;;;;;;4176657;28;20029;-62
2021/11/28 10:31:22;;;;;;;16.85;10.05;;;6.40;99.90;;;;;;4168664;28;20116;-63
2021/11/28 10:33:23;;;;;;;20.77;10.82;;;6.40;99.90;;;;;;4178031;28;20037;-62
2021/11/28 10:35:23;;;;;;;16.80;10.50;;;6.40;99.90;;;;;;4170608;28;20032;-62
2021/11/28 10:37:25;;;;;;;18.55;10.93;;;6.50;99.90;;;;;;4171355;28;20049;-62
2021/11/28 10:39:25;;;;;;;16.25;9.93;;;6.40;99.90;;;;;;4171590;28;20037;-62
2021/11/28 10:41:28;;;;;;;17.55;11.25;;;6.50;99.90;;;;;;4175582;28;20086;-62
2021/11/28 10:43:40;;;;;;;16.17;11.10;;;6.50;99.90;;;;;;4172170;28;20091;-62
2021/11/28 10:45:49;;;;;;;17.17;10.80;;;6.50;99.90;;;;;;4180856;28;20029;-62